sensor_id;sensor_type;location;lat;lon;timestamp;P1;durP1;ratioP1;P2;durP2;ratioP2
57599;SDS011;43426;43.594;24.334;2023-04-23T00:00:51;13.13;;;11.00;;
57599;SDS011;43426;43.594;24.334;2023-04-23T00:03:18;11.80;;;10.60;;
57599;SDS011;43426;43.594;24.334;2023-04-23T00:05:48;14.27;;;11.60;;
57599;SDS011;43426;43.594;24.334;2023-04-23T00:08:17;15.25;;;12.00;;
57599;SDS011;43426;43.594;24.334;2023-04-23T00:10:42;14.20;;;11.73;;
57599;SDS011;43426;43.594;24.334;2023-04-23T00:13:08;14.02;;;12.25;;
57599;SDS011;43426;43.594;24.334;2023-04-23T00:15:34;18.52;;;12.80;;
57599;SDS011;43426;43.594;24.334;2023-04-23T00:18:00;20.10;;;13.25;;
57599;SDS011;43426;43.594;24.334;2023-04-23T00:20:25;19.48;;;13.98;;
57599;SDS011;43426;43.594;24.334;2023-04-23T00:22:50;15.30;;;12.20;;
57599;SDS011;43426;43.594;24.334;2023-04-23T00:25:16;17.63;;;13.07;;
57599;SDS011;43426;43.594;24.334;2023-04-23T00:27:41;19.23;;;13.40;;
57599;SDS011;43426;43.594;24.334;2023-04-23T00:30:07;18.83;;;13.00;;
57599;SDS011;43426;43.594;24.334;2023-04-23T00:32:33;13.90;;;12.43;;
57599;SDS011;43426;43.594;24.334;2023-04-23T00:34:58;17.50;;;12.40;;
57599;SDS011;43426;43.594;24.334;2023-04-23T00:37:26;17.00;;;11.95;;
57599;SDS011;43426;43.594;24.334;2023-04-23T00:39:51;12.13;;;10.82;;
57599;SDS011;43426;43.594;24.334;2023-04-23T00:42:16;13.80;;;11.27;;
57599;SDS011;43426;43.594;24.334;2023-04-23T00:44:42;15.93;;;11.53;;
57599;SDS011;43426;43.594;24.334;2023-04-23T00:47:07;20.15;;;12.70;;
57599;SDS011;43426;43.594;24.334;2023-04-23T00:49:35;18.23;;;11.60;;
57599;SDS011;43426;43.594;24.334;2023-04-23T00:52:01;18.45;;;11.00;;
57599;SDS011;43426;43.594;24.334;2023-04-23T00:54:28;11.15;;;10.13;;
57599;SDS011;43426;43.594;24.334;2023-04-23T00:56:55;15.57;;;10.63;;
57599;SDS011;43426;43.594;24.334;2023-04-23T00:59:24;10.55;;;9.60;;
57599;SDS011;43426;43.594;24.334;2023-04-23T01:04:16;12.70;;;9.70;;
57599;SDS011;43426;43.594;24.334;2023-04-23T01:06:42;9.90;;;8.90;;
57599;SDS011;43426;43.594;24.334;2023-04-23T01:09:11;11.05;;;9.95;;
57599;SDS011;43426;43.594;24.334;2023-04-23T01:11:38;12.45;;;10.00;;
57599;SDS011;43426;43.594;24.334;2023-04-23T01:14:06;13.82;;;12.27;;
57599;SDS011;43426;43.594;24.334;2023-04-23T01:16:33;11.30;;;10.20;;
57599;SDS011;43426;43.594;24.334;2023-04-23T01:21:26;10.95;;;9.88;;
57599;SDS011;43426;43.594;24.334;2023-04-23T01:23:53;13.23;;;10.40;;
57599;SDS011;43426;43.594;24.334;2023-04-23T01:26:21;15.70;;;10.00;;
57599;SDS011;43426;43.594;24.334;2023-04-23T01:28:47;9.90;;;9.00;;
57599;SDS011;43426;43.594;24.334;2023-04-23T01:31:16;12.98;;;9.90;;
57599;SDS011;43426;43.594;24.334;2023-04-23T01:33:43;11.52;;;10.20;;
57599;SDS011;43426;43.594;24.334;2023-04-23T01:36:09;13.00;;;10.00;;
57599;SDS011;43426;43.594;24.334;2023-04-23T01:38:35;11.68;;;9.05;;
57599;SDS011;43426;43.594;24.334;2023-04-23T01:41:02;12.30;;;9.88;;
57599;SDS011;43426;43.594;24.334;2023-04-23T01:43:28;14.35;;;9.98;;
57599;SDS011;43426;43.594;24.334;2023-04-23T01:45:56;16.50;;;10.15;;
57599;SDS011;43426;43.594;24.334;2023-04-23T01:48:22;11.60;;;9.45;;
57599;SDS011;43426;43.594;24.334;2023-04-23T01:50:48;14.55;;;11.60;;
57599;SDS011;43426;43.594;24.334;2023-04-23T01:53:15;9.25;;;8.38;;
57599;SDS011;43426;43.594;24.334;2023-04-23T01:55:40;11.77;;;8.43;;
57599;SDS011;43426;43.594;24.334;2023-04-23T01:58:07;14.65;;;8.80;;
57599;SDS011;43426;43.594;24.334;2023-04-23T02:00:32;14.20;;;9.10;;
57599;SDS011;43426;43.594;24.334;2023-04-23T02:02:58;9.90;;;8.63;;
57599;SDS011;43426;43.594;24.334;2023-04-23T02:05:23;10.50;;;9.53;;
57599;SDS011;43426;43.594;24.334;2023-04-23T02:10:16;9.75;;;8.85;;
57599;SDS011;43426;43.594;24.334;2023-04-23T02:12:42;11.85;;;8.15;;
57599;SDS011;43426;43.594;24.334;2023-04-23T02:15:09;23.63;;;9.10;;
57599;SDS011;43426;43.594;24.334;2023-04-23T02:17:35;14.18;;;9.18;;
57599;SDS011;43426;43.594;24.334;2023-04-23T02:20:01;14.98;;;9.88;;
57599;SDS011;43426;43.594;24.334;2023-04-23T02:22:26;13.88;;;10.32;;
57599;SDS011;43426;43.594;24.334;2023-04-23T02:24:52;10.77;;;9.55;;
57599;SDS011;43426;43.594;24.334;2023-04-23T02:27:19;10.93;;;9.82;;
57599;SDS011;43426;43.594;24.334;2023-04-23T02:29:45;15.18;;;11.73;;
57599;SDS011;43426;43.594;24.334;2023-04-23T02:32:12;16.98;;;11.80;;
57599;SDS011;43426;43.594;24.334;2023-04-23T02:34:38;11.18;;;10.07;;
57599;SDS011;43426;43.594;24.334;2023-04-23T02:37:03;11.57;;;10.23;;
57599;SDS011;43426;43.594;24.334;2023-04-23T02:39:29;11.63;;;9.45;;
57599;SDS011;43426;43.594;24.334;2023-04-23T02:41:55;10.63;;;9.68;;
57599;SDS011;43426;43.594;24.334;2023-04-23T02:44:22;15.20;;;9.73;;
57599;SDS011;43426;43.594;24.334;2023-04-23T02:46:51;12.57;;;9.90;;
57599;SDS011;43426;43.594;24.334;2023-04-23T02:49:16;10.45;;;9.30;;
57599;SDS011;43426;43.594;24.334;2023-04-23T02:51:44;16.80;;;9.88;;
57599;SDS011;43426;43.594;24.334;2023-04-23T02:54:09;11.88;;;10.77;;
57599;SDS011;43426;43.594;24.334;2023-04-23T02:56:35;12.57;;;10.60;;
57599;SDS011;43426;43.594;24.334;2023-04-23T02:59:01;9.98;;;8.95;;
57599;SDS011;43426;43.594;24.334;2023-04-23T03:01:26;10.35;;;9.32;;
57599;SDS011;43426;43.594;24.334;2023-04-23T03:03:52;11.47;;;10.03;;
57599;SDS011;43426;43.594;24.334;2023-04-23T03:06:17;11.02;;;9.88;;
57599;SDS011;43426;43.594;24.334;2023-04-23T03:08:43;13.40;;;9.88;;
57599;SDS011;43426;43.594;24.334;2023-04-23T03:11:08;11.48;;;10.27;;
57599;SDS011;43426;43.594;24.334;2023-04-23T03:13:34;16.83;;;10.65;;
57599;SDS011;43426;43.594;24.334;2023-04-23T03:15:59;13.27;;;11.13;;
57599;SDS011;43426;43.594;24.334;2023-04-23T03:18:24;12.80;;;10.05;;
57599;SDS011;43426;43.594;24.334;2023-04-23T03:20:50;14.10;;;10.93;;
57599;SDS011;43426;43.594;24.334;2023-04-23T03:23:15;16.67;;;11.27;;
57599;SDS011;43426;43.594;24.334;2023-04-23T03:25:41;14.20;;;9.88;;
57599;SDS011;43426;43.594;24.334;2023-04-23T03:28:06;11.00;;;9.23;;
57599;SDS011;43426;43.594;24.334;2023-04-23T03:30:32;11.52;;;9.38;;
57599;SDS011;43426;43.594;24.334;2023-04-23T03:32:58;12.05;;;9.27;;
57599;SDS011;43426;43.594;24.334;2023-04-23T03:35:25;11.63;;;10.13;;
57599;SDS011;43426;43.594;24.334;2023-04-23T03:37:50;11.82;;;10.68;;
57599;SDS011;43426;43.594;24.334;2023-04-23T03:40:16;11.88;;;10.60;;
57599;SDS011;43426;43.594;24.334;2023-04-23T03:42:42;31.30;;;13.32;;
57599;SDS011;43426;43.594;24.334;2023-04-23T03:45:07;39.53;;;12.65;;
57599;SDS011;43426;43.594;24.334;2023-04-23T03:47:33;34.08;;;12.65;;
57599;SDS011;43426;43.594;24.334;2023-04-23T03:49:58;21.73;;;13.50;;
57599;SDS011;43426;43.594;24.334;2023-04-23T03:52:24;20.02;;;14.98;;
57599;SDS011;43426;43.594;24.334;2023-04-23T03:54:50;17.25;;;13.52;;
57599;SDS011;43426;43.594;24.334;2023-04-23T03:57:15;18.63;;;14.37;;
57599;SDS011;43426;43.594;24.334;2023-04-23T03:59:41;18.50;;;12.87;;
57599;SDS011;43426;43.594;24.334;2023-04-23T04:02:06;17.47;;;13.47;;
57599;SDS011;43426;43.594;24.334;2023-04-23T04:04:32;21.98;;;14.82;;
57599;SDS011;43426;43.594;24.334;2023-04-23T04:06:57;14.20;;;11.75;;
57599;SDS011;43426;43.594;24.334;2023-04-23T04:09:29;12.82;;;11.18;;
57599;SDS011;43426;43.594;24.334;2023-04-23T04:11:54;13.20;;;11.02;;
57599;SDS011;43426;43.594;24.334;2023-04-23T04:14:20;16.60;;;11.30;;
57599;SDS011;43426;43.594;24.334;2023-04-23T04:16:46;10.95;;;9.85;;
57599;SDS011;43426;43.594;24.334;2023-04-23T04:19:12;10.50;;;9.60;;
57599;SDS011;43426;43.594;24.334;2023-04-23T04:21:37;10.90;;;9.93;;
57599;SDS011;43426;43.594;24.334;2023-04-23T04:24:03;11.60;;;10.40;;
57599;SDS011;43426;43.594;24.334;2023-04-23T04:26:32;10.48;;;9.57;;
57599;SDS011;43426;43.594;24.334;2023-04-23T04:28:58;10.77;;;9.75;;
57599;SDS011;43426;43.594;24.334;2023-04-23T04:31:25;12.02;;;10.88;;
57599;SDS011;43426;43.594;24.334;2023-04-23T04:33:55;10.48;;;9.45;;
57599;SDS011;43426;43.594;24.334;2023-04-23T04:36:21;10.73;;;9.63;;
57599;SDS011;43426;43.594;24.334;2023-04-23T04:38:49;10.27;;;9.38;;
57599;SDS011;43426;43.594;24.334;2023-04-23T04:41:16;13.55;;;9.60;;
57599;SDS011;43426;43.594;24.334;2023-04-23T04:43:45;10.60;;;9.70;;
57599;SDS011;43426;43.594;24.334;2023-04-23T04:46:12;10.60;;;9.40;;
57599;SDS011;43426;43.594;24.334;2023-04-23T04:48:37;10.18;;;9.25;;
57599;SDS011;43426;43.594;24.334;2023-04-23T04:51:03;23.17;;;9.10;;
57599;SDS011;43426;43.594;24.334;2023-04-23T04:53:29;11.38;;;8.55;;
57599;SDS011;43426;43.594;24.334;2023-04-23T04:55:54;10.02;;;9.07;;
57599;SDS011;43426;43.594;24.334;2023-04-23T04:58:19;9.07;;;8.20;;
57599;SDS011;43426;43.594;24.334;2023-04-23T05:00:45;9.90;;;8.85;;
57599;SDS011;43426;43.594;24.334;2023-04-23T05:03:15;9.43;;;8.52;;
57599;SDS011;43426;43.594;24.334;2023-04-23T05:08:07;8.73;;;8.00;;
57599;SDS011;43426;43.594;24.334;2023-04-23T05:10:33;9.15;;;8.35;;
57599;SDS011;43426;43.594;24.334;2023-04-23T05:12:58;11.52;;;7.93;;
57599;SDS011;43426;43.594;24.334;2023-04-23T05:15:24;9.20;;;8.40;;
57599;SDS011;43426;43.594;24.334;2023-04-23T05:17:50;10.98;;;8.63;;
57599;SDS011;43426;43.594;24.334;2023-04-23T05:20:18;9.25;;;8.35;;
57599;SDS011;43426;43.594;24.334;2023-04-23T05:22:46;9.25;;;8.52;;
57599;SDS011;43426;43.594;24.334;2023-04-23T05:25:12;10.10;;;9.23;;
57599;SDS011;43426;43.594;24.334;2023-04-23T05:27:38;10.23;;;9.10;;
57599;SDS011;43426;43.594;24.334;2023-04-23T05:30:04;12.18;;;8.68;;
57599;SDS011;43426;43.594;24.334;2023-04-23T05:32:32;14.48;;;8.95;;
57599;SDS011;43426;43.594;24.334;2023-04-23T05:34:58;9.75;;;8.65;;
57599;SDS011;43426;43.594;24.334;2023-04-23T05:37:24;8.77;;;8.00;;
57599;SDS011;43426;43.594;24.334;2023-04-23T05:39:50;10.20;;;9.20;;
57599;SDS011;43426;43.594;24.334;2023-04-23T05:42:15;10.80;;;8.95;;
57599;SDS011;43426;43.594;24.334;2023-04-23T05:44:41;9.77;;;8.88;;
57599;SDS011;43426;43.594;24.334;2023-04-23T05:47:06;10.18;;;8.60;;
57599;SDS011;43426;43.594;24.334;2023-04-23T05:49:33;12.13;;;8.88;;
57599;SDS011;43426;43.594;24.334;2023-04-23T05:51:58;10.13;;;8.15;;
57599;SDS011;43426;43.594;24.334;2023-04-23T05:54:24;11.10;;;8.02;;
57599;SDS011;43426;43.594;24.334;2023-04-23T05:56:50;8.93;;;8.15;;
57599;SDS011;43426;43.594;24.334;2023-04-23T05:59:15;8.38;;;7.78;;
57599;SDS011;43426;43.594;24.334;2023-04-23T06:01:41;9.32;;;8.45;;
57599;SDS011;43426;43.594;24.334;2023-04-23T06:06:32;9.77;;;8.88;;
57599;SDS011;43426;43.594;24.334;2023-04-23T06:11:23;14.32;;;9.25;;
57599;SDS011;43426;43.594;24.334;2023-04-23T06:13:48;9.43;;;8.63;;
57599;SDS011;43426;43.594;24.334;2023-04-23T06:16:14;10.10;;;9.30;;
57599;SDS011;43426;43.594;24.334;2023-04-23T06:18:42;12.23;;;10.05;;
57599;SDS011;43426;43.594;24.334;2023-04-23T06:21:07;13.65;;;10.40;;
57599;SDS011;43426;43.594;24.334;2023-04-23T06:25:58;11.52;;;10.30;;
57599;SDS011;43426;43.594;24.334;2023-04-23T06:28:24;11.48;;;10.48;;
57599;SDS011;43426;43.594;24.334;2023-04-23T06:30:51;11.57;;;10.52;;
57599;SDS011;43426;43.594;24.334;2023-04-23T06:33:17;11.13;;;10.13;;
57599;SDS011;43426;43.594;24.334;2023-04-23T06:35:42;12.13;;;9.70;;
57599;SDS011;43426;43.594;24.334;2023-04-23T06:40:33;13.00;;;9.52;;
57599;SDS011;43426;43.594;24.334;2023-04-23T06:45:28;11.77;;;10.68;;
57599;SDS011;43426;43.594;24.334;2023-04-23T06:47:55;10.98;;;9.98;;
57599;SDS011;43426;43.594;24.334;2023-04-23T06:52:46;12.18;;;9.43;;
57599;SDS011;43426;43.594;24.334;2023-04-23T06:57:37;10.00;;;9.07;;
57599;SDS011;43426;43.594;24.334;2023-04-23T07:00:03;9.73;;;8.82;;
57599;SDS011;43426;43.594;24.334;2023-04-23T07:02:32;9.70;;;8.68;;
57599;SDS011;43426;43.594;24.334;2023-04-23T07:07:22;9.32;;;8.52;;
57599;SDS011;43426;43.594;24.334;2023-04-23T07:09:48;8.45;;;7.72;;
57599;SDS011;43426;43.594;24.334;2023-04-23T07:12:13;8.30;;;7.60;;
57599;SDS011;43426;43.594;24.334;2023-04-23T07:14:39;8.88;;;7.80;;
57599;SDS011;43426;43.594;24.334;2023-04-23T07:17:04;9.15;;;7.68;;
57599;SDS011;43426;43.594;24.334;2023-04-23T07:19:29;9.93;;;7.97;;
57599;SDS011;43426;43.594;24.334;2023-04-23T07:21:55;8.32;;;7.18;;
57599;SDS011;43426;43.594;24.334;2023-04-23T07:24:22;10.15;;;7.57;;
57599;SDS011;43426;43.594;24.334;2023-04-23T07:26:50;7.95;;;7.28;;
57599;SDS011;43426;43.594;24.334;2023-04-23T07:29:15;8.73;;;7.20;;
57599;SDS011;43426;43.594;24.334;2023-04-23T07:31:41;7.82;;;7.03;;
57599;SDS011;43426;43.594;24.334;2023-04-23T07:34:06;8.30;;;7.60;;
57599;SDS011;43426;43.594;24.334;2023-04-23T07:36:33;8.50;;;7.80;;
57599;SDS011;43426;43.594;24.334;2023-04-23T07:38:59;8.30;;;7.47;;
57599;SDS011;43426;43.594;24.334;2023-04-23T07:41:25;9.25;;;7.70;;
57599;SDS011;43426;43.594;24.334;2023-04-23T07:43:50;9.00;;;8.10;;
57599;SDS011;43426;43.594;24.334;2023-04-23T07:46:16;8.63;;;7.70;;
57599;SDS011;43426;43.594;24.334;2023-04-23T07:48:41;7.18;;;6.38;;
57599;SDS011;43426;43.594;24.334;2023-04-23T07:51:07;7.32;;;6.03;;
57599;SDS011;43426;43.594;24.334;2023-04-23T07:53:33;17.65;;;7.65;;
57599;SDS011;43426;43.594;24.334;2023-04-23T07:55:59;8.30;;;7.00;;
57599;SDS011;43426;43.594;24.334;2023-04-23T07:58:25;7.85;;;7.25;;
57599;SDS011;43426;43.594;24.334;2023-04-23T08:00:50;7.60;;;6.90;;
57599;SDS011;43426;43.594;24.334;2023-04-23T08:03:16;6.13;;;5.65;;
57599;SDS011;43426;43.594;24.334;2023-04-23T08:05:41;6.18;;;5.40;;
57599;SDS011;43426;43.594;24.334;2023-04-23T08:08:07;7.93;;;5.97;;
57599;SDS011;43426;43.594;24.334;2023-04-23T08:10:36;7.97;;;5.97;;
57599;SDS011;43426;43.594;24.334;2023-04-23T08:13:01;17.80;;;11.40;;
57599;SDS011;43426;43.594;24.334;2023-04-23T08:15:27;7.75;;;6.22;;
57599;SDS011;43426;43.594;24.334;2023-04-23T08:17:52;7.00;;;6.38;;
57599;SDS011;43426;43.594;24.334;2023-04-23T08:20:18;7.65;;;6.95;;
57599;SDS011;43426;43.594;24.334;2023-04-23T08:22:43;6.50;;;5.90;;
57599;SDS011;43426;43.594;24.334;2023-04-23T08:25:09;7.18;;;6.65;;
57599;SDS011;43426;43.594;24.334;2023-04-23T08:27:36;6.78;;;6.28;;
57599;SDS011;43426;43.594;24.334;2023-04-23T08:30:02;7.68;;;6.97;;
57599;SDS011;43426;43.594;24.334;2023-04-23T08:32:28;7.00;;;6.40;;
57599;SDS011;43426;43.594;24.334;2023-04-23T08:34:54;7.10;;;6.50;;
57599;SDS011;43426;43.594;24.334;2023-04-23T08:37:19;6.90;;;6.40;;
57599;SDS011;43426;43.594;24.334;2023-04-23T08:39:45;8.32;;;7.53;;
57599;SDS011;43426;43.594;24.334;2023-04-23T08:42:14;7.57;;;7.00;;
57599;SDS011;43426;43.594;24.334;2023-04-23T08:44:47;7.38;;;6.78;;
57599;SDS011;43426;43.594;24.334;2023-04-23T08:47:16;9.23;;;7.13;;
57599;SDS011;43426;43.594;24.334;2023-04-23T08:49:42;7.53;;;6.82;;
57599;SDS011;43426;43.594;24.334;2023-04-23T08:52:22;8.07;;;6.40;;
57599;SDS011;43426;43.594;24.334;2023-04-23T08:54:49;6.90;;;5.88;;
57599;SDS011;43426;43.594;24.334;2023-04-23T08:57:17;5.60;;;4.68;;
57599;SDS011;43426;43.594;24.334;2023-04-23T08:59:44;5.55;;;4.65;;
57599;SDS011;43426;43.594;24.334;2023-04-23T09:02:11;3.55;;;3.22;;
57599;SDS011;43426;43.594;24.334;2023-04-23T09:04:39;4.50;;;3.38;;
57599;SDS011;43426;43.594;24.334;2023-04-23T09:07:05;3.55;;;3.25;;
57599;SDS011;43426;43.594;24.334;2023-04-23T09:09:35;6.00;;;3.97;;
57599;SDS011;43426;43.594;24.334;2023-04-23T09:12:03;3.78;;;3.47;;
57599;SDS011;43426;43.594;24.334;2023-04-23T09:14:33;5.47;;;3.70;;
57599;SDS011;43426;43.594;24.334;2023-04-23T09:16:59;5.63;;;3.08;;
57599;SDS011;43426;43.594;24.334;2023-04-23T09:19:26;4.13;;;3.40;;
57599;SDS011;43426;43.594;24.334;2023-04-23T09:21:52;5.63;;;3.45;;
57599;SDS011;43426;43.594;24.334;2023-04-23T09:24:18;3.33;;;2.60;;
57599;SDS011;43426;43.594;24.334;2023-04-23T09:26:50;3.88;;;2.40;;
57599;SDS011;43426;43.594;24.334;2023-04-23T09:29:17;2.10;;;1.90;;
57599;SDS011;43426;43.594;24.334;2023-04-23T09:31:45;3.30;;;2.00;;
57599;SDS011;43426;43.594;24.334;2023-04-23T09:34:13;1.95;;;1.67;;
57599;SDS011;43426;43.594;24.334;2023-04-23T09:36:49;4.50;;;2.75;;
57599;SDS011;43426;43.594;24.334;2023-04-23T09:39:16;3.13;;;2.53;;
57599;SDS011;43426;43.594;24.334;2023-04-23T09:41:44;2.75;;;2.13;;
57599;SDS011;43426;43.594;24.334;2023-04-23T09:44:19;5.05;;;2.40;;
57599;SDS011;43426;43.594;24.334;2023-04-23T09:46:50;4.22;;;2.10;;
57599;SDS011;43426;43.594;24.334;2023-04-23T09:49:16;4.10;;;1.98;;
57599;SDS011;43426;43.594;24.334;2023-04-23T09:51:43;4.25;;;2.35;;
57599;SDS011;43426;43.594;24.334;2023-04-23T09:56:39;2.10;;;1.75;;
57599;SDS011;43426;43.594;24.334;2023-04-23T09:59:21;2.03;;;1.80;;
57599;SDS011;43426;43.594;24.334;2023-04-23T10:01:53;2.88;;;2.00;;
57599;SDS011;43426;43.594;24.334;2023-04-23T10:04:19;4.93;;;2.25;;
57599;SDS011;43426;43.594;24.334;2023-04-23T10:06:56;5.55;;;2.22;;
57599;SDS011;43426;43.594;24.334;2023-04-23T10:09:26;3.97;;;2.00;;
57599;SDS011;43426;43.594;24.334;2023-04-23T10:11:57;3.92;;;1.90;;
57599;SDS011;43426;43.594;24.334;2023-04-23T10:14:24;2.20;;;2.00;;
57599;SDS011;43426;43.594;24.334;2023-04-23T10:17:01;1.90;;;1.80;;
57599;SDS011;43426;43.594;24.334;2023-04-23T10:19:28;4.88;;;2.00;;
57599;SDS011;43426;43.594;24.334;2023-04-23T10:21:57;3.92;;;1.90;;
57599;SDS011;43426;43.594;24.334;2023-04-23T10:24:26;4.03;;;1.80;;
57599;SDS011;43426;43.594;24.334;2023-04-23T10:26:58;3.38;;;2.00;;
57599;SDS011;43426;43.594;24.334;2023-04-23T10:29:27;3.58;;;2.40;;
57599;SDS011;43426;43.594;24.334;2023-04-23T10:32:00;2.00;;;1.80;;
57599;SDS011;43426;43.594;24.334;2023-04-23T10:34:27;2.65;;;2.15;;
57599;SDS011;43426;43.594;24.334;2023-04-23T10:36:55;4.07;;;1.80;;
57599;SDS011;43426;43.594;24.334;2023-04-23T10:39:24;3.45;;;1.90;;
57599;SDS011;43426;43.594;24.334;2023-04-23T10:41:52;2.67;;;2.28;;
57599;SDS011;43426;43.594;24.334;2023-04-23T10:44:19;2.00;;;1.80;;
57599;SDS011;43426;43.594;24.334;2023-04-23T10:46:54;2.85;;;2.03;;
57599;SDS011;43426;43.594;24.334;2023-04-23T10:49:23;4.15;;;2.63;;
57599;SDS011;43426;43.594;24.334;2023-04-23T10:54:28;7.35;;;2.20;;
57599;SDS011;43426;43.594;24.334;2023-04-23T10:57:02;1.88;;;1.67;;
57599;SDS011;43426;43.594;24.334;2023-04-23T10:59:30;2.40;;;1.92;;
57599;SDS011;43426;43.594;24.334;2023-04-23T11:01:56;2.65;;;1.90;;
57599;SDS011;43426;43.594;24.334;2023-04-23T11:04:26;2.88;;;2.13;;
57599;SDS011;43426;43.594;24.334;2023-04-23T11:07:05;2.20;;;1.65;;
57599;SDS011;43426;43.594;24.334;2023-04-23T11:09:39;4.82;;;2.05;;
57599;SDS011;43426;43.594;24.334;2023-04-23T11:12:11;2.55;;;1.92;;
57599;SDS011;43426;43.594;24.334;2023-04-23T11:14:41;2.60;;;2.05;;
57599;SDS011;43426;43.594;24.334;2023-04-23T11:17:14;7.50;;;2.00;;
57599;SDS011;43426;43.594;24.334;2023-04-23T11:22:44;3.20;;;2.13;;
57599;SDS011;43426;43.594;24.334;2023-04-23T11:25:27;2.33;;;2.03;;
57599;SDS011;43426;43.594;24.334;2023-04-23T11:27:53;2.42;;;1.98;;
57599;SDS011;43426;43.594;24.334;2023-04-23T11:30:21;2.35;;;2.10;;
57599;SDS011;43426;43.594;24.334;2023-04-23T11:32:50;3.40;;;2.45;;
57599;SDS011;43426;43.594;24.334;2023-04-23T11:35:17;4.53;;;2.38;;
57599;SDS011;43426;43.594;24.334;2023-04-23T11:37:44;2.80;;;2.30;;
57599;SDS011;43426;43.594;24.334;2023-04-23T11:40:12;3.88;;;2.95;;
57599;SDS011;43426;43.594;24.334;2023-04-23T11:42:43;3.08;;;1.90;;
57599;SDS011;43426;43.594;24.334;2023-04-23T11:45:14;2.67;;;1.88;;
57599;SDS011;43426;43.594;24.334;2023-04-23T11:47:47;2.55;;;2.20;;
57599;SDS011;43426;43.594;24.334;2023-04-23T11:50:21;3.40;;;2.13;;
57599;SDS011;43426;43.594;24.334;2023-04-23T11:52:49;5.65;;;2.13;;
57599;SDS011;43426;43.594;24.334;2023-04-23T11:55:14;2.65;;;2.00;;
57599;SDS011;43426;43.594;24.334;2023-04-23T11:57:45;1.90;;;1.70;;
57599;SDS011;43426;43.594;24.334;2023-04-23T12:00:12;13.95;;;6.43;;
57599;SDS011;43426;43.594;24.334;2023-04-23T12:05:19;2.35;;;2.10;;
57599;SDS011;43426;43.594;24.334;2023-04-23T12:07:50;4.45;;;3.83;;
57599;SDS011;43426;43.594;24.334;2023-04-23T12:10:19;3.40;;;2.10;;
57599;SDS011;43426;43.594;24.334;2023-04-23T12:12:51;2.97;;;1.80;;
57599;SDS011;43426;43.594;24.334;2023-04-23T12:15:17;3.20;;;1.50;;
57599;SDS011;43426;43.594;24.334;2023-04-23T12:17:47;2.90;;;1.90;;
57599;SDS011;43426;43.594;24.334;2023-04-23T12:20:17;3.42;;;2.53;;
57599;SDS011;43426;43.594;24.334;2023-04-23T12:22:45;2.35;;;1.60;;
57599;SDS011;43426;43.594;24.334;2023-04-23T12:25:11;2.45;;;1.88;;
57599;SDS011;43426;43.594;24.334;2023-04-23T12:27:40;2.17;;;1.92;;
57599;SDS011;43426;43.594;24.334;2023-04-23T12:30:08;4.93;;;2.05;;
57599;SDS011;43426;43.594;24.334;2023-04-23T12:32:35;2.55;;;2.35;;
57599;SDS011;43426;43.594;24.334;2023-04-23T12:35:02;2.28;;;1.92;;
57599;SDS011;43426;43.594;24.334;2023-04-23T12:37:33;3.00;;;1.60;;
57599;SDS011;43426;43.594;24.334;2023-04-23T12:40:00;4.68;;;1.95;;
57599;SDS011;43426;43.594;24.334;2023-04-23T12:42:25;2.67;;;1.92;;
57599;SDS011;43426;43.594;24.334;2023-04-23T12:44:51;2.50;;;2.08;;
57599;SDS011;43426;43.594;24.334;2023-04-23T12:47:16;3.58;;;1.55;;
57599;SDS011;43426;43.594;24.334;2023-04-23T12:49:45;2.17;;;2.00;;
57599;SDS011;43426;43.594;24.334;2023-04-23T12:52:13;3.40;;;1.60;;
57599;SDS011;43426;43.594;24.334;2023-04-23T12:54:38;1.58;;;1.40;;
57599;SDS011;43426;43.594;24.334;2023-04-23T12:57:05;3.35;;;1.52;;
57599;SDS011;43426;43.594;24.334;2023-04-23T12:59:32;4.35;;;1.80;;
57599;SDS011;43426;43.594;24.334;2023-04-23T13:01:58;2.65;;;2.00;;
57599;SDS011;43426;43.594;24.334;2023-04-23T13:04:27;1.80;;;1.70;;
57599;SDS011;43426;43.594;24.334;2023-04-23T13:06:53;3.63;;;1.60;;
57599;SDS011;43426;43.594;24.334;2023-04-23T13:09:19;1.90;;;1.50;;
57599;SDS011;43426;43.594;24.334;2023-04-23T13:11:46;2.17;;;1.83;;
57599;SDS011;43426;43.594;24.334;2023-04-23T13:14:14;2.90;;;1.60;;
57599;SDS011;43426;43.594;24.334;2023-04-23T13:16:40;2.45;;;2.17;;
57599;SDS011;43426;43.594;24.334;2023-04-23T13:19:09;3.00;;;2.15;;
57599;SDS011;43426;43.594;24.334;2023-04-23T13:21:35;4.40;;;2.20;;
57599;SDS011;43426;43.594;24.334;2023-04-23T13:24:00;2.47;;;2.00;;
57599;SDS011;43426;43.594;24.334;2023-04-23T13:26:26;2.65;;;2.08;;
57599;SDS011;43426;43.594;24.334;2023-04-23T13:28:55;2.25;;;2.05;;
57599;SDS011;43426;43.594;24.334;2023-04-23T13:31:21;2.00;;;1.80;;
57599;SDS011;43426;43.594;24.334;2023-04-23T13:33:47;2.03;;;1.83;;
57599;SDS011;43426;43.594;24.334;2023-04-23T13:36:12;3.22;;;1.80;;
57599;SDS011;43426;43.594;24.334;2023-04-23T13:38:37;2.25;;;1.88;;
57599;SDS011;43426;43.594;24.334;2023-04-23T13:41:03;3.67;;;1.95;;
57599;SDS011;43426;43.594;24.334;2023-04-23T13:43:28;3.55;;;1.90;;
57599;SDS011;43426;43.594;24.334;2023-04-23T13:45:54;2.38;;;1.75;;
57599;SDS011;43426;43.594;24.334;2023-04-23T13:48:19;3.22;;;1.80;;
57599;SDS011;43426;43.594;24.334;2023-04-23T13:50:45;3.05;;;1.60;;
57599;SDS011;43426;43.594;24.334;2023-04-23T13:53:11;2.17;;;1.33;;
57599;SDS011;43426;43.594;24.334;2023-04-23T13:55:37;4.32;;;1.60;;
57599;SDS011;43426;43.594;24.334;2023-04-23T13:58:03;1.98;;;1.77;;
57599;SDS011;43426;43.594;24.334;2023-04-23T14:00:30;3.08;;;1.80;;
57599;SDS011;43426;43.594;24.334;2023-04-23T14:02:56;3.28;;;1.73;;
57599;SDS011;43426;43.594;24.334;2023-04-23T14:05:21;1.83;;;1.55;;
57599;SDS011;43426;43.594;24.334;2023-04-23T14:07:47;1.92;;;1.73;;
57599;SDS011;43426;43.594;24.334;2023-04-23T14:10:12;5.03;;;1.80;;
57599;SDS011;43426;43.594;24.334;2023-04-23T14:12:39;2.05;;;1.55;;
57599;SDS011;43426;43.594;24.334;2023-04-23T14:15:05;2.55;;;1.95;;
57599;SDS011;43426;43.594;24.334;2023-04-23T14:17:32;2.08;;;1.60;;
57599;SDS011;43426;43.594;24.334;2023-04-23T14:19:58;3.15;;;2.00;;
57599;SDS011;43426;43.594;24.334;2023-04-23T14:22:24;2.20;;;1.70;;
57599;SDS011;43426;43.594;24.334;2023-04-23T14:24:50;1.83;;;1.70;;
57599;SDS011;43426;43.594;24.334;2023-04-23T14:27:21;2.30;;;1.60;;
57599;SDS011;43426;43.594;24.334;2023-04-23T14:29:51;2.15;;;1.70;;
57599;SDS011;43426;43.594;24.334;2023-04-23T14:32:21;1.65;;;1.55;;
57599;SDS011;43426;43.594;24.334;2023-04-23T14:34:47;3.15;;;1.83;;
57599;SDS011;43426;43.594;24.334;2023-04-23T14:37:12;3.78;;;1.70;;
57599;SDS011;43426;43.594;24.334;2023-04-23T14:39:39;2.10;;;1.67;;
57599;SDS011;43426;43.594;24.334;2023-04-23T14:42:04;1.70;;;1.60;;
57599;SDS011;43426;43.594;24.334;2023-04-23T14:44:30;2.22;;;1.70;;
57599;SDS011;43426;43.594;24.334;2023-04-23T14:46:55;2.60;;;1.60;;
57599;SDS011;43426;43.594;24.334;2023-04-23T14:49:21;1.85;;;1.63;;
57599;SDS011;43426;43.594;24.334;2023-04-23T14:51:47;2.47;;;1.75;;
57599;SDS011;43426;43.594;24.334;2023-04-23T14:54:15;3.33;;;1.55;;
57599;SDS011;43426;43.594;24.334;2023-04-23T14:56:40;2.65;;;2.00;;
57599;SDS011;43426;43.594;24.334;2023-04-23T14:59:07;3.45;;;1.83;;
57599;SDS011;43426;43.594;24.334;2023-04-23T15:01:32;2.72;;;1.80;;
57599;SDS011;43426;43.594;24.334;2023-04-23T15:03:58;2.78;;;1.92;;